sensor_id;sensor_type;location;lat;lon;timestamp;pressure;altitude;pressure_sealevel;temperature;humidity
49377;BME280;35253;34.688;33.040;2022-12-29T00:01:16;102053.47;;;14.33;100.00
49377;BME280;35253;34.688;33.040;2022-12-29T00:03:45;102068.53;;;14.18;100.00
49377;BME280;35253;34.688;33.040;2022-12-29T00:06:10;102063.53;;;14.12;100.00
49377;BME280;35253;34.688;33.040;2022-12-29T00:08:35;102059.31;;;14.24;100.00
49377;BME280;35253;34.688;33.040;2022-12-29T00:11:07;102054.25;;;14.35;100.00
49377;BME280;35253;34.688;33.040;2022-12-29T00:13:34;102055.13;;;14.18;100.00
49377;BME280;35253;34.688;33.040;2022-12-29T00:16:18;102061.13;;;14.23;100.00
49377;BME280;35253;34.688;33.040;2022-12-29T00:18:43;102060.44;;;14.20;100.00
49377;BME280;35253;34.688;33.040;2022-12-29T00:21:16;102049.78;;;14.18;100.00
49377;BME280;35253;34.688;33.040;2022-12-29T00:24:00;102039.38;;;14.12;100.00
49377;BME280;35253;34.688;33.040;2022-12-29T00:26:44;102046.22;;;14.00;100.00
49377;BME280;35253;34.688;33.040;2022-12-29T00:29:28;102051.59;;;14.00;100.00
49377;BME280;35253;34.688;33.040;2022-12-29T00:32:12;102044.19;;;14.06;100.00
49377;BME280;35253;34.688;33.040;2022-12-29T00:34:56;102036.84;;;14.09;100.00
49377;BME280;35253;34.688;33.040;2022-12-29T00:37:37;102038.41;;;13.96;100.00
49377;BME280;35253;34.688;33.040;2022-12-29T00:40:22;102044.34;;;14.03;100.00
49377;BME280;35253;34.688;33.040;2022-12-29T00:43:06;102029.59;;;13.94;100.00
49377;BME280;35253;34.688;33.040;2022-12-29T00:45:50;102035.97;;;13.91;100.00
49377;BME280;35253;34.688;33.040;2022-12-29T00:48:15;102025.97;;;13.95;100.00
49377;BME280;35253;34.688;33.040;2022-12-29T00:51:02;102028.91;;;13.90;100.00
49377;BME280;35253;34.688;33.040;2022-12-29T00:53:27;102024.31;;;13.92;100.00
49377;BME280;35253;34.688;33.040;2022-12-29T00:55:53;102033.47;;;13.88;100.00
49377;BME280;35253;34.688;33.040;2022-12-29T00:58:18;102032.69;;;13.86;100.00
49377;BME280;35253;34.688;33.040;2022-12-29T01:00:44;102018.66;;;13.81;100.00
49377;BME280;35253;34.688;33.040;2022-12-29T01:03:09;102028.03;;;13.90;100.00
49377;BME280;35253;34.688;33.040;2022-12-29T01:05:37;102020.84;;;13.73;100.00
49377;BME280;35253;34.688;33.040;2022-12-29T01:08:03;102015.00;;;13.82;100.00
49377;BME280;35253;34.688;33.040;2022-12-29T01:10:28;102017.38;;;13.88;100.00
49377;BME280;35253;34.688;33.040;2022-12-29T01:12:54;102022.66;;;13.90;100.00
49377;BME280;35253;34.688;33.040;2022-12-29T01:15:19;102009.16;;;13.91;100.00
49377;BME280;35253;34.688;33.040;2022-12-29T01:17:45;102009.16;;;13.91;100.00
49377;BME280;35253;34.688;33.040;2022-12-29T01:20:11;102002.44;;;14.00;100.00
49377;BME280;35253;34.688;33.040;2022-12-29T01:22:36;102005.06;;;14.02;100.00
49377;BME280;35253;34.688;33.040;2022-12-29T01:25:02;102011.06;;;14.07;100.00
49377;BME280;35253;34.688;33.040;2022-12-29T01:27:28;102013.13;;;14.02;100.00
49377;BME280;35253;34.688;33.040;2022-12-29T01:29:53;102004.91;;;14.05;100.00
49377;BME280;35253;34.688;33.040;2022-12-29T01:32:19;102003.44;;;13.99;100.00
49377;BME280;35253;34.688;33.040;2022-12-29T01:34:44;102002.31;;;14.03;100.00
49377;BME280;35253;34.688;33.040;2022-12-29T01:37:10;102001.28;;;14.06;100.00
49377;BME280;35253;34.688;33.040;2022-12-29T01:39:35;101996.59;;;14.09;100.00
49377;BME280;35253;34.688;33.040;2022-12-29T01:42:01;101998.34;;;14.10;100.00
49377;BME280;35253;34.688;33.040;2022-12-29T01:47:10;101990.69;;;14.20;100.00
49377;BME280;35253;34.688;33.040;2022-12-29T01:49:35;101983.59;;;14.19;100.00
49377;BME280;35253;34.688;33.040;2022-12-29T01:52:04;101989.19;;;14.14;100.00
49377;BME280;35253;34.688;33.040;2022-12-29T01:54:32;101984.78;;;14.13;100.00
49377;BME280;35253;34.688;33.040;2022-12-29T01:57:00;101979.81;;;14.06;100.00
49377;BME280;35253;34.688;33.040;2022-12-29T01:59:31;101981.88;;;14.00;100.00
49377;BME280;35253;34.688;33.040;2022-12-29T02:01:57;101977.38;;;14.01;100.00
49377;BME280;35253;34.688;33.040;2022-12-29T02:04:23;101975.38;;;14.22;100.00
49377;BME280;35253;34.688;33.040;2022-12-29T02:06:52;101978.28;;;14.17;100.00
49377;BME280;35253;34.688;33.040;2022-12-29T02:09:18;101974.53;;;14.21;100.00
49377;BME280;35253;34.688;33.040;2022-12-29T02:11:44;101968.59;;;14.15;100.00
49377;BME280;35253;34.688;33.040;2022-12-29T02:14:13;101960.38;;;14.18;100.00
49377;BME280;35253;34.688;33.040;2022-12-29T02:16:58;101958.69;;;14.17;100.00
49377;BME280;35253;34.688;33.040;2022-12-29T02:19:41;101966.88;;;14.14;100.00
49377;BME280;35253;34.688;33.040;2022-12-29T02:23:16;101971.53;;;14.10;100.00
49377;BME280;35253;34.688;33.040;2022-12-29T02:33:03;101960.59;;;13.97;100.00
49377;BME280;35253;34.688;33.040;2022-12-29T02:35:56;101961.84;;;14.08;100.00
49377;BME280;35253;34.688;33.040;2022-12-29T02:38:21;101965.00;;;13.98;100.00
49377;BME280;35253;34.688;33.040;2022-12-29T02:40:55;101955.06;;;14.00;100.00
49377;BME280;35253;34.688;33.040;2022-12-29T02:43:29;101960.91;;;13.91;100.00
49377;BME280;35253;34.688;33.040;2022-12-29T02:46:00;101962.47;;;13.95;100.00
49377;BME280;35253;34.688;33.040;2022-12-29T02:48:41;101961.84;;;14.08;100.00
49377;BME280;35253;34.688;33.040;2022-12-29T02:51:18;101951.31;;;14.20;100.00
49377;BME280;35253;34.688;33.040;2022-12-29T02:53:44;101958.38;;;14.06;100.00
49377;BME280;35253;34.688;33.040;2022-12-29T02:56:29;101960.09;;;14.07;100.00
49377;BME280;35253;34.688;33.040;2022-12-29T02:58:54;101963.59;;;13.91;100.00
49377;BME280;35253;34.688;33.040;2022-12-29T03:03:56;101964.91;;;14.00;100.00
49377;BME280;35253;34.688;33.040;2022-12-29T03:09:11;101965.94;;;13.97;100.00
49377;BME280;35253;34.688;33.040;2022-12-29T03:11:41;101965.00;;;13.98;100.00
49377;BME280;35253;34.688;33.040;2022-12-29T03:14:32;101961.84;;;14.08;100.00
49377;BME280;35253;34.688;33.040;2022-12-29T03:19:59;101972.00;;;14.01;100.00
49377;BME280;35253;34.688;33.040;2022-12-29T03:22:27;101971.84;;;14.04;100.00
49377;BME280;35253;34.688;33.040;2022-12-29T03:25:02;101970.91;;;14.05;100.00
49377;BME280;35253;34.688;33.040;2022-12-29T03:27:32;101977.22;;;14.04;100.00
49377;BME280;35253;34.688;33.040;2022-12-29T03:30:01;101974.00;;;13.97;100.00
49377;BME280;35253;34.688;33.040;2022-12-29T03:32:32;101974.16;;;13.94;100.00
49377;BME280;35253;34.688;33.040;2022-12-29T03:34:59;101977.34;;;13.85;100.00
49377;BME280;35253;34.688;33.040;2022-12-29T03:37:27;101976.75;;;13.79;100.00
49377;BME280;35253;34.688;33.040;2022-12-29T03:39:54;101976.88;;;13.77;100.00
49377;BME280;35253;34.688;33.040;2022-12-29T03:42:20;101979.69;;;13.74;100.00
49377;BME280;35253;34.688;33.040;2022-12-29T03:44:46;101980.06;;;13.84;100.00
49377;BME280;35253;34.688;33.040;2022-12-29T03:47:12;101977.63;;;13.79;100.00
49377;BME280;35253;34.688;33.040;2022-12-29T03:49:39;101990.88;;;13.82;100.00
49377;BME280;35253;34.688;33.040;2022-12-29T03:52:05;101984.09;;;13.75;100.00
49377;BME280;35253;34.688;33.040;2022-12-29T03:54:30;101988.28;;;13.81;100.00
49377;BME280;35253;34.688;33.040;2022-12-29T03:56:56;101991.50;;;13.87;100.00
49377;BME280;35253;34.688;33.040;2022-12-29T03:59:21;101991.38;;;13.90;100.00
49377;BME280;35253;34.688;33.040;2022-12-29T04:01:47;101991.03;;;13.96;100.00
49377;BME280;35253;34.688;33.040;2022-12-29T04:04:12;101997.44;;;13.94;100.00
49377;BME280;35253;34.688;33.040;2022-12-29T04:06:38;101997.56;;;13.91;100.00
49377;BME280;35253;34.688;33.040;2022-12-29T04:09:04;102010.50;;;13.66;100.00
49377;BME280;35253;34.688;33.040;2022-12-29T04:11:29;102012.19;;;13.68;100.00
49377;BME280;35253;34.688;33.040;2022-12-29T04:13:55;102019.41;;;13.66;100.00
49377;BME280;35253;34.688;33.040;2022-12-29T04:16:20;102019.41;;;13.66;100.00
49377;BME280;35253;34.688;33.040;2022-12-29T04:18:45;102028.56;;;13.79;100.00
49377;BME280;35253;34.688;33.040;2022-12-29T04:21:11;102022.44;;;13.77;100.00
49377;BME280;35253;34.688;33.040;2022-12-29T04:23:37;102031.19;;;13.81;100.00
49377;BME280;35253;34.688;33.040;2022-12-29T04:26:03;102033.28;;;13.74;100.00
49377;BME280;35253;34.688;33.040;2022-12-29T04:28:29;102036.13;;;13.71;100.00
49377;BME280;35253;34.688;33.040;2022-12-29T04:30:54;102042.59;;;13.67;100.00
49377;BME280;35253;34.688;33.040;2022-12-29T04:33:20;102026.03;;;13.59;100.00
49377;BME280;35253;34.688;33.040;2022-12-29T04:35:45;102042.31;;;13.73;100.00
49377;BME280;35253;34.688;33.040;2022-12-29T04:38:11;102036.44;;;13.65;100.00
49377;BME280;35253;34.688;33.040;2022-12-29T04:40:40;102034.09;;;13.59;100.00
49377;BME280;35253;34.688;33.040;2022-12-29T04:43:06;102039.56;;;13.56;100.00
49377;BME280;35253;34.688;33.040;2022-12-29T04:45:31;102042.38;;;13.36;100.00
49377;BME280;35253;34.688;33.040;2022-12-29T04:47:57;102042.19;;;13.58;100.00
49377;BME280;35253;34.688;33.040;2022-12-29T04:50:22;102044.81;;;13.59;100.00
49377;BME280;35253;34.688;33.040;2022-12-29T04:52:48;102044.63;;;13.62;100.00
49377;BME280;35253;34.688;33.040;2022-12-29T04:55:13;102044.34;;;13.68;100.00
49377;BME280;35253;34.688;33.040;2022-12-29T04:57:39;102043.47;;;13.68;100.00
49377;BME280;35253;34.688;33.040;2022-12-29T05:00:04;102051.75;;;13.63;100.00
49377;BME280;35253;34.688;33.040;2022-12-29T05:02:30;102055.66;;;13.56;100.00
49377;BME280;35253;34.688;33.040;2022-12-29T05:04:56;102053.78;;;13.58;100.00
49377;BME280;35253;34.688;33.040;2022-12-29T05:07:21;102056.78;;;13.69;100.00
49377;BME280;35253;34.688;33.040;2022-12-29T05:09:47;102061.75;;;13.60;100.00
49377;BME280;35253;34.688;33.040;2022-12-29T05:12:12;102056.47;;;13.58;100.00
49377;BME280;35253;34.688;33.040;2022-12-29T05:14:38;102067.66;;;13.66;100.00
49377;BME280;35253;34.688;33.040;2022-12-29T05:17:03;102062.00;;;13.72;100.00
49377;BME280;35253;34.688;33.040;2022-12-29T05:19:29;102055.06;;;13.68;100.00
49377;BME280;35253;34.688;33.040;2022-12-29T05:21:54;102063.59;;;13.76;100.00
49377;BME280;35253;34.688;33.040;2022-12-29T05:24:20;102059.81;;;13.80;100.00
49377;BME280;35253;34.688;33.040;2022-12-29T05:26:45;102060.03;;;13.76;100.00
49377;BME280;35253;34.688;33.040;2022-12-29T05:29:11;102062.97;;;13.88;100.00
49377;BME280;35253;34.688;33.040;2022-12-29T05:31:36;102057.75;;;13.85;100.00
49377;BME280;35253;34.688;33.040;2022-12-29T05:34:02;102056.19;;;13.81;100.00
49377;BME280;35253;34.688;33.040;2022-12-29T05:36:27;102066.56;;;13.87;100.00
49377;BME280;35253;34.688;33.040;2022-12-29T05:38:53;102052.28;;;13.87;100.00
49377;BME280;35253;34.688;33.040;2022-12-29T05:41:18;102071.41;;;13.98;100.00
49377;BME280;35253;34.688;33.040;2022-12-29T05:43:44;102065.09;;;13.99;100.00
49377;BME280;35253;34.688;33.040;2022-12-29T05:46:09;102064.88;;;14.04;100.00
49377;BME280;35253;34.688;33.040;2022-12-29T05:48:35;102069.81;;;14.11;100.00
49377;BME280;35253;34.688;33.040;2022-12-29T05:51:00;102076.84;;;14.14;100.00
49377;BME280;35253;34.688;33.040;2022-12-29T05:53:26;102076.94;;;14.12;100.00
49377;BME280;35253;34.688;33.040;2022-12-29T05:55:51;102078.34;;;14.19;100.00
49377;BME280;35253;34.688;33.040;2022-12-29T05:58:17;102081.25;;;14.15;100.00
49377;BME280;35253;34.688;33.040;2022-12-29T06:00:42;102085.22;;;14.25;100.00
49377;BME280;35253;34.688;33.040;2022-12-29T06:03:09;102082.06;;;14.34;100.00
49377;BME280;35253;34.688;33.040;2022-12-29T06:05:35;102086.63;;;14.49;100.00
49377;BME280;35253;34.688;33.040;2022-12-29T06:08:00;102082.44;;;14.61;100.00
49377;BME280;35253;34.688;33.040;2022-12-29T06:10:26;102083.38;;;14.60;100.00
49377;BME280;35253;34.688;33.040;2022-12-29T06:12:51;102091.19;;;14.64;100.00
49377;BME280;35253;34.688;33.040;2022-12-29T06:15:17;102090.00;;;14.70;100.00
49377;BME280;35253;34.688;33.040;2022-12-29T06:17:42;102095.91;;;14.76;100.00
49377;BME280;35253;34.688;33.040;2022-12-29T06:20:08;102098.56;;;14.76;100.00
49377;BME280;35253;34.688;33.040;2022-12-29T06:22:34;102092.63;;;14.87;100.00
49377;BME280;35253;34.688;33.040;2022-12-29T06:25:00;102105.72;;;14.93;100.00
49377;BME280;35253;34.688;33.040;2022-12-29T06:27:26;102100.09;;;14.98;100.00
49377;BME280;35253;34.688;33.040;2022-12-29T06:29:52;102103.22;;;15.06;100.00
49377;BME280;35253;34.688;33.040;2022-12-29T06:32:17;102101.94;;;15.13;100.00
49377;BME280;35253;34.688;33.040;2022-12-29T06:34:43;102103.75;;;15.28;100.00
49377;BME280;35253;34.688;33.040;2022-12-29T06:37:10;102112.63;;;15.30;100.00
49377;BME280;35253;34.688;33.040;2022-12-29T06:39:35;102112.09;;;15.39;100.00
49377;BME280;35253;34.688;33.040;2022-12-29T06:42:01;102122.66;;;15.42;100.00
49377;BME280;35253;34.688;33.040;2022-12-29T06:44:26;102121.53;;;15.46;100.00
49377;BME280;35253;34.688;33.040;2022-12-29T06:46:51;102127.56;;;15.51;100.00
49377;BME280;35253;34.688;33.040;2022-12-29T06:49:17;102119.72;;;15.47;100.00
49377;BME280;35253;34.688;33.040;2022-12-29T06:51:42;102130.00;;;15.56;100.00
49377;BME280;35253;34.688;33.040;2022-12-29T06:54:08;102123.41;;;15.61;100.00
49377;BME280;35253;34.688;33.040;2022-12-29T06:56:33;102128.41;;;15.67;100.00
49377;BME280;35253;34.688;33.040;2022-12-29T06:58:59;102132.13;;;15.81;100.00
49377;BME280;35253;34.688;33.040;2022-12-29T07:01:26;102139.69;;;15.90;100.00
49377;BME280;35253;34.688;33.040;2022-12-29T07:03:51;102137.25;;;16.01;100.00
49377;BME280;35253;34.688;33.040;2022-12-29T07:06:17;102140.88;;;16.00;100.00
49377;BME280;35253;34.688;33.040;2022-12-29T07:08:42;102136.38;;;16.00;100.00
49377;BME280;35253;34.688;33.040;2022-12-29T07:11:08;102135.31;;;16.03;100.00
49377;BME280;35253;34.688;33.040;2022-12-29T07:13:33;102143.78;;;16.11;100.00
49377;BME280;35253;34.688;33.040;2022-12-29T07:15:59;102141.88;;;16.13;100.00
49377;BME280;35253;34.688;33.040;2022-12-29T07:18:24;102146.72;;;16.22;100.00
49377;BME280;35253;34.688;33.040;2022-12-29T07:20:50;102142.72;;;16.29;100.00
49377;BME280;35253;34.688;33.040;2022-12-29T07:23:15;102151.19;;;16.37;100.00
49377;BME280;35253;34.688;33.040;2022-12-29T07:25:41;102151.03;;;16.40;100.00
49377;BME280;35253;34.688;33.040;2022-12-29T07:28:06;102155.84;;;16.49;100.00
49377;BME280;35253;34.688;33.040;2022-12-29T07:30:32;102144.03;;;16.52;100.00
49377;BME280;35253;34.688;33.040;2022-12-29T07:32:58;102156.00;;;16.62;100.00
49377;BME280;35253;34.688;33.040;2022-12-29T07:35:24;102152.66;;;16.73;100.00
49377;BME280;35253;34.688;33.040;2022-12-29T07:37:49;102142.53;;;16.76;100.00
49377;BME280;35253;34.688;33.040;2022-12-29T07:40:15;102144.78;;;16.84;100.00
49377;BME280;35253;34.688;33.040;2022-12-29T07:42:41;102142.09;;;16.84;100.00
49377;BME280;35253;34.688;33.040;2022-12-29T07:45:06;102145.25;;;16.90;100.00
49377;BME280;35253;34.688;33.040;2022-12-29T07:47:32;102138.41;;;16.99;100.00
49377;BME280;35253;34.688;33.040;2022-12-29T07:49:57;102146.03;;;17.06;100.00
49377;BME280;35253;34.688;33.040;2022-12-29T07:52:23;102142.78;;;17.01;100.00
49377;BME280;35253;34.688;33.040;2022-12-29T07:54:48;102134.97;;;16.97;100.00
49377;BME280;35253;34.688;33.040;2022-12-29T07:57:13;102133.63;;;17.18;100.00
49377;BME280;35253;34.688;33.040;2022-12-29T07:59:39;102128.31;;;17.17;100.00
49377;BME280;35253;34.688;33.040;2022-12-29T08:02:04;102125.03;;;17.26;100.00
49377;BME280;35253;34.688;33.040;2022-12-29T08:04:30;102130.03;;;17.32;100.00
49377;BME280;35253;34.688;33.040;2022-12-29T08:06:55;102134.34;;;17.34;100.00
49377;BME280;35253;34.688;33.040;2022-12-29T08:09:21;102137.63;;;17.39;100.00
49377;BME280;35253;34.688;33.040;2022-12-29T08:11:46;102125.78;;;17.42;100.00
49377;BME280;35253;34.688;33.040;2022-12-29T08:14:11;102127.63;;;17.41;100.00
49377;BME280;35253;34.688;33.040;2022-12-29T08:16:37;102135.72;;;17.41;100.00
49377;BME280;35253;34.688;33.040;2022-12-29T08:19:02;102133.16;;;17.52;100.00
49377;BME280;35253;34.688;33.040;2022-12-29T08:21:30;102127.69;;;17.54;100.00
49377;BME280;35253;34.688;33.040;2022-12-29T08:23:55;102127.78;;;17.52;100.00
49377;BME280;35253;34.688;33.040;2022-12-29T08:26:21;102122.03;;;17.59;100.00
49377;BME280;35253;34.688;33.040;2022-12-29T08:28:46;102122.38;;;17.67;100.00
49377;BME280;35253;34.688;33.040;2022-12-29T08:31:12;102117.13;;;17.78;100.00
49377;BME280;35253;34.688;33.040;2022-12-29T08:33:37;102105.78;;;17.73;100.00
49377;BME280;35253;34.688;33.040;2022-12-29T08:36:04;102116.16;;;17.79;100.00
49377;BME280;35253;34.688;33.040;2022-12-29T08:38:30;102110.88;;;17.77;100.00
49377;BME280;35253;34.688;33.040;2022-12-29T08:40:56;102108.06;;;17.79;100.00
49377;BME280;35253;34.688;33.040;2022-12-29T08:43:22;102105.72;;;17.87;100.00
49377;BME280;35253;34.688;33.040;2022-12-29T08:45:47;102105.16;;;17.82;100.00
49377;BME280;35253;34.688;33.040;2022-12-29T08:48:13;102109.38;;;17.86;100.00
49377;BME280;35253;34.688;33.040;2022-12-29T08:50:38;102106.03;;;17.82;100.00
49377;BME280;35253;34.688;33.040;2022-12-29T08:53:04;102098.59;;;17.86;100.00
49377;BME280;35253;34.688;33.040;2022-12-29T08:55:29;102096.66;;;17.88;100.00
49377;BME280;35253;34.688;33.040;2022-12-29T08:57:54;102094.53;;;17.93;100.00
49377;BME280;35253;34.688;33.040;2022-12-29T09:00:20;102095.09;;;17.98;100.00
49377;BME280;35253;34.688;33.040;2022-12-29T09:02:45;102085.91;;;18.00;100.00
49377;BME280;35253;34.688;33.040;2022-12-29T09:05:11;102087.44;;;18.05;100.00
49377;BME280;35253;34.688;33.040;2022-12-29T09:07:37;102082.91;;;18.05;100.00
49377;BME280;35253;34.688;33.040;2022-12-29T09:10:02;102084.63;;;18.06;100.00
49377;BME280;35253;34.688;33.040;2022-12-29T09:12:28;102070.91;;;18.09;100.00
49377;BME280;35253;34.688;33.040;2022-12-29T09:14:53;102066.94;;;18.15;100.00
49377;BME280;35253;34.688;33.040;2022-12-29T09:17:19;102076.00;;;18.14;100.00
49377;BME280;35253;34.688;33.040;2022-12-29T09:20:03;102052.16;;;18.20;100.00
49377;BME280;35253;34.688;33.040;2022-12-29T09:22:28;102061.97;;;18.21;100.00
49377;BME280;35253;34.688;33.040;2022-12-29T09:24:54;102052.72;;;18.25;100.00
49377;BME280;35253;34.688;33.040;2022-12-29T09:27:19;102059.41;;;18.32;100.00
49377;BME280;35253;34.688;33.040;2022-12-29T09:29:44;102051.22;;;18.34;100.00
49377;BME280;35253;34.688;33.040;2022-12-29T09:32:10;102050.34;;;18.33;100.00
49377;BME280;35253;34.688;33.040;2022-12-29T09:34:35;102046.47;;;18.37;100.00
49377;BME280;35253;34.688;33.040;2022-12-29T09:37:01;102048.38;;;18.35;100.00
49377;BME280;35253;34.688;33.040;2022-12-29T09:39:26;102046.88;;;18.44;100.00
49377;BME280;35253;34.688;33.040;2022-12-29T09:42:06;102040.41;;;18.46;100.00
49377;BME280;35253;34.688;33.040;2022-12-29T09:47:08;102032.19;;;18.61;100.00
49377;BME280;35253;34.688;33.040;2022-12-29T09:52:14;102028.44;;;18.63;100.00
49377;BME280;35253;34.688;33.040;2022-12-29T09:54:53;102031.03;;;18.65;100.00
49377;BME280;35253;34.688;33.040;2022-12-29T09:57:25;102021.84;;;18.67;100.00
49377;BME280;35253;34.688;33.040;2022-12-29T09:59:54;102025.94;;;18.73;100.00
49377;BME280;35253;34.688;33.040;2022-12-29T10:02:32;102018.56;;;18.75;100.00
49377;BME280;35253;34.688;33.040;2022-12-29T10:04:59;102020.22;;;18.77;100.00
49377;BME280;35253;34.688;33.040;2022-12-29T10:07:27;102015.44;;;18.81;100.00
49377;BME280;35253;34.688;33.040;2022-12-29T10:25:20;102003.34;;;19.10;100.00
49377;BME280;35253;34.688;33.040;2022-12-29T10:27:47;102003.44;;;19.21;100.00
49377;BME280;35253;34.688;33.040;2022-12-29T10:30:13;102004.16;;;19.23;100.00
49377;BME280;35253;34.688;33.040;2022-12-29T10:32:40;101994.31;;;19.22;100.00
49377;BME280;35253;34.688;33.040;2022-12-29T10:35:12;101995.66;;;19.41;100.00
49377;BME280;35253;34.688;33.040;2022-12-29T10:42:55;101984.81;;;19.53;100.00
49377;BME280;35253;34.688;33.040;2022-12-29T10:45:22;101983.03;;;19.65;100.00
49377;BME280;35253;34.688;33.040;2022-12-29T10:47:52;101984.78;;;19.77;100.00
49377;BME280;35253;34.688;33.040;2022-12-29T10:50:19;101978.59;;;19.75;100.00
49377;BME280;35253;34.688;33.040;2022-12-29T10:52:44;101983.56;;;19.81;100.00
49377;BME280;35253;34.688;33.040;2022-12-29T10:57:38;101976.72;;;19.99;100.00
49377;BME280;35253;34.688;33.040;2022-12-29T11:00:15;101968.56;;;19.88;100.00
49377;BME280;35253;34.688;33.040;2022-12-29T11:08:12;101969.66;;;20.65;100.00
49377;BME280;35253;34.688;33.040;2022-12-29T11:10:40;101967.69;;;20.67;100.00
49377;BME280;35253;34.688;33.040;2022-12-29T11:13:19;101966.19;;;20.96;100.00
49377;BME280;35253;34.688;33.040;2022-12-29T11:15:49;101969.97;;;21.16;100.00
49377;BME280;35253;34.688;33.040;2022-12-29T11:20:47;101971.00;;;21.68;100.00
49377;BME280;35253;34.688;33.040;2022-12-29T11:25:59;101963.44;;;22.24;100.00
49377;BME280;35253;34.688;33.040;2022-12-29T11:28:30;101967.66;;;22.47;100.00
49377;BME280;35253;34.688;33.040;2022-12-29T11:31:00;101959.53;;;22.77;100.00
49377;BME280;35253;34.688;33.040;2022-12-29T11:33:29;101965.91;;;23.07;100.00
49377;BME280;35253;34.688;33.040;2022-12-29T11:38:47;101964.94;;;23.27;100.00
49377;BME280;35253;34.688;33.040;2022-12-29T11:41:22;101962.97;;;23.48;100.00
49377;BME280;35253;34.688;33.040;2022-12-29T11:43:48;101961.97;;;23.68;100.00
49377;BME280;35253;34.688;33.040;2022-12-29T11:46:19;101962.97;;;23.87;96.87
49377;BME280;35253;34.688;33.040;2022-12-29T11:48:45;101956.78;;;24.04;98.10
49377;BME280;35253;34.688;33.040;2022-12-29T11:51:11;101962.00;;;24.44;97.91
49377;BME280;35253;34.688;33.040;2022-12-29T11:53:42;101961.38;;;24.50;95.26
49377;BME280;35253;34.688;33.040;2022-12-29T11:56:10;101969.03;;;24.74;92.14
49377;BME280;35253;34.688;33.040;2022-12-29T11:58:37;101965.22;;;24.84;91.04
49377;BME280;35253;34.688;33.040;2022-12-29T12:03:59;101963.06;;;25.50;84.76
49377;BME280;35253;34.688;33.040;2022-12-29T12:06:26;101961.72;;;25.19;84.76
49377;BME280;35253;34.688;33.040;2022-12-29T12:11:56;101960.13;;;25.44;84.40
49377;BME280;35253;34.688;33.040;2022-12-29T12:16:54;101969.56;;;25.67;85.52
49377;BME280;35253;34.688;33.040;2022-12-29T12:22:03;101965.09;;;25.13;86.01
49377;BME280;35253;34.688;33.040;2022-12-29T12:32:23;101972.69;;;22.42;100.00
49377;BME280;35253;34.688;33.040;2022-12-29T12:34:51;101972.44;;;23.63;99.36
49377;BME280;35253;34.688;33.040;2022-12-29T12:37:29;101968.78;;;24.30;95.86
49377;BME280;35253;34.688;33.040;2022-12-29T12:55:30;101963.44;;;22.24;100.00
49377;BME280;35253;34.688;33.040;2022-12-29T13:14:18;101976.22;;;25.65;92.77
49377;BME280;35253;34.688;33.040;2022-12-29T13:22:08;101989.34;;;27.24;84.40
49377;BME280;35253;34.688;33.040;2022-12-29T13:27:30;101977.84;;;32.21;54.64
49377;BME280;35253;34.688;33.040;2022-12-29T13:32:27;101986.84;;;29.75;60.84
49377;BME280;35253;34.688;33.040;2022-12-29T13:35:07;101980.19;;;30.30;58.57
49377;BME280;35253;34.688;33.040;2022-12-29T13:37:36;101975.75;;;28.84;63.68
49377;BME280;35253;34.688;33.040;2022-12-29T13:40:13;101981.81;;;27.34;68.83
49377;BME280;35253;34.688;33.040;2022-12-29T13:42:40;101986.44;;;23.30;100.00
49377;BME280;35253;34.688;33.040;2022-12-29T13:45:06;101988.91;;;23.71;100.00
49377;BME280;35253;34.688;33.040;2022-12-29T13:47:36;101983.19;;;23.46;100.00
49377;BME280;35253;34.688;33.040;2022-12-29T13:50:04;101983.41;;;24.10;100.00
49377;BME280;35253;34.688;33.040;2022-12-29T13:52:37;101986.63;;;23.96;99.87
49377;BME280;35253;34.688;33.040;2022-12-29T13:58:13;101993.69;;;24.45;100.00
49377;BME280;35253;34.688;33.040;2022-12-29T14:03:24;101998.09;;;26.26;88.05
49377;BME280;35253;34.688;33.040;2022-12-29T14:08:42;101991.06;;;24.53;96.58
49377;BME280;35253;34.688;33.040;2022-12-29T14:11:11;101997.22;;;23.79;100.00
49377;BME280;35253;34.688;33.040;2022-12-29T14:13:40;101997.25;;;23.01;100.00
49377;BME280;35253;34.688;33.040;2022-12-29T14:16:07;101992.53;;;22.63;100.00
49377;BME280;35253;34.688;33.040;2022-12-29T14:18:41;101992.00;;;22.18;100.00
49377;BME280;35253;34.688;33.040;2022-12-29T14:23:40;101994.09;;;21.30;100.00
49377;BME280;35253;34.688;33.040;2022-12-29T14:28:35;101990.00;;;20.71;100.00
49377;BME280;35253;34.688;33.040;2022-12-29T14:31:33;101993.81;;;20.79;100.00
49377;BME280;35253;34.688;33.040;2022-12-29T14:36:27;101988.63;;;20.54;100.00
49377;BME280;35253;34.688;33.040;2022-12-29T14:38:58;101995.13;;;20.29;100.00
49377;BME280;35253;34.688;33.040;2022-12-29T14:41:26;101998.41;;;20.10;100.00
49377;BME280;35253;34.688;33.040;2022-12-29T14:43:59;101995.41;;;19.91;100.00
49377;BME280;35253;34.688;33.040;2022-12-29T14:46:41;101993.72;;;19.66;100.00
49377;BME280;35253;34.688;33.040;2022-12-29T14:49:08;102001.63;;;19.46;100.00
49377;BME280;35253;34.688;33.040;2022-12-29T14:51:39;102005.59;;;19.40;100.00
49377;BME280;35253;34.688;33.040;2022-12-29T14:56:49;102008.53;;;19.13;100.00